sensor_id;sensor_type;location;lat;lon;timestamp;P1;durP1;ratioP1;P2;durP2;ratioP2
65035;SDS011;51603;49.300;8.880;2023-08-01T00:02:20;8.93;;;6.60;;
65035;SDS011;51603;49.300;8.880;2023-08-01T00:04:45;9.37;;;6.07;;
65035;SDS011;51603;49.300;8.880;2023-08-01T00:07:11;7.37;;;6.57;;
65035;SDS011;51603;49.300;8.880;2023-08-01T00:09:36;10.80;;;6.93;;
65035;SDS011;51603;49.300;8.880;2023-08-01T00:12:02;6.70;;;5.50;;
65035;SDS011;51603;49.300;8.880;2023-08-01T00:14:28;7.33;;;5.80;;
65035;SDS011;51603;49.300;8.880;2023-08-01T00:16:53;7.00;;;5.60;;
65035;SDS011;51603;49.300;8.880;2023-08-01T00:19:19;8.10;;;5.20;;
65035;SDS011;51603;49.300;8.880;2023-08-01T00:21:44;8.53;;;5.67;;
65035;SDS011;51603;49.300;8.880;2023-08-01T00:24:10;7.57;;;5.37;;
65035;SDS011;51603;49.300;8.880;2023-08-01T00:26:36;9.33;;;5.60;;
65035;SDS011;51603;49.300;8.880;2023-08-01T00:29:01;9.70;;;6.00;;
65035;SDS011;51603;49.300;8.880;2023-08-01T00:31:27;7.87;;;5.47;;
65035;SDS011;51603;49.300;8.880;2023-08-01T00:33:52;7.00;;;4.83;;
65035;SDS011;51603;49.300;8.880;2023-08-01T00:36:18;8.70;;;5.53;;
65035;SDS011;51603;49.300;8.880;2023-08-01T00:38:43;8.33;;;5.20;;
65035;SDS011;51603;49.300;8.880;2023-08-01T00:41:09;7.60;;;5.13;;
65035;SDS011;51603;49.300;8.880;2023-08-01T00:43:35;7.03;;;5.50;;
65035;SDS011;51603;49.300;8.880;2023-08-01T00:46:02;7.30;;;4.73;;
65035;SDS011;51603;49.300;8.880;2023-08-01T00:48:29;6.17;;;4.50;;
65035;SDS011;51603;49.300;8.880;2023-08-01T00:50:59;6.30;;;5.67;;
65035;SDS011;51603;49.300;8.880;2023-08-01T00:53:28;8.63;;;5.60;;
65035;SDS011;51603;49.300;8.880;2023-08-01T00:55:54;8.07;;;5.00;;
65035;SDS011;51603;49.300;8.880;2023-08-01T00:58:21;5.90;;;5.17;;
65035;SDS011;51603;49.300;8.880;2023-08-01T01:00:47;6.30;;;5.00;;
65035;SDS011;51603;49.300;8.880;2023-08-01T01:03:13;6.60;;;5.67;;
65035;SDS011;51603;49.300;8.880;2023-08-01T01:05:40;5.60;;;5.00;;
65035;SDS011;51603;49.300;8.880;2023-08-01T01:08:12;7.47;;;5.10;;
65035;SDS011;51603;49.300;8.880;2023-08-01T01:10:38;5.60;;;5.07;;
65035;SDS011;51603;49.300;8.880;2023-08-01T01:13:04;6.23;;;5.50;;
65035;SDS011;51603;49.300;8.880;2023-08-01T01:15:29;6.70;;;5.70;;
65035;SDS011;51603;49.300;8.880;2023-08-01T01:17:55;6.10;;;5.50;;
65035;SDS011;51603;49.300;8.880;2023-08-01T01:20:22;9.03;;;6.27;;
65035;SDS011;51603;49.300;8.880;2023-08-01T01:22:49;6.63;;;4.87;;
65035;SDS011;51603;49.300;8.880;2023-08-01T01:25:17;6.23;;;5.50;;
65035;SDS011;51603;49.300;8.880;2023-08-01T01:27:45;5.13;;;4.43;;
65035;SDS011;51603;49.300;8.880;2023-08-01T01:30:12;8.93;;;5.53;;
65035;SDS011;51603;49.300;8.880;2023-08-01T01:32:37;7.27;;;5.57;;
65035;SDS011;51603;49.300;8.880;2023-08-01T01:35:04;5.87;;;4.60;;
65035;SDS011;51603;49.300;8.880;2023-08-01T01:37:30;6.67;;;4.90;;
65035;SDS011;51603;49.300;8.880;2023-08-01T01:39:55;9.20;;;5.13;;
65035;SDS011;51603;49.300;8.880;2023-08-01T01:42:21;5.10;;;4.40;;
65035;SDS011;51603;49.300;8.880;2023-08-01T01:44:46;6.80;;;4.83;;
65035;SDS011;51603;49.300;8.880;2023-08-01T01:47:12;4.80;;;3.87;;
65035;SDS011;51603;49.300;8.880;2023-08-01T01:49:38;7.10;;;4.80;;
65035;SDS011;51603;49.300;8.880;2023-08-01T01:52:03;6.20;;;5.07;;
65035;SDS011;51603;49.300;8.880;2023-08-01T01:54:29;5.80;;;4.87;;
65035;SDS011;51603;49.300;8.880;2023-08-01T01:56:55;7.03;;;5.23;;
65035;SDS011;51603;49.300;8.880;2023-08-01T01:59:20;9.10;;;5.37;;
65035;SDS011;51603;49.300;8.880;2023-08-01T02:01:46;6.87;;;5.70;;
65035;SDS011;51603;49.300;8.880;2023-08-01T02:04:11;8.33;;;4.67;;
65035;SDS011;51603;49.300;8.880;2023-08-01T02:06:37;6.30;;;4.80;;
65035;SDS011;51603;49.300;8.880;2023-08-01T02:09:02;7.10;;;5.57;;
65035;SDS011;51603;49.300;8.880;2023-08-01T02:11:29;5.43;;;4.93;;
65035;SDS011;51603;49.300;8.880;2023-08-01T02:13:55;8.23;;;5.43;;
65035;SDS011;51603;49.300;8.880;2023-08-01T02:16:20;7.73;;;5.07;;
65035;SDS011;51603;49.300;8.880;2023-08-01T02:18:46;7.20;;;5.17;;
65035;SDS011;51603;49.300;8.880;2023-08-01T02:21:11;7.30;;;4.77;;
65035;SDS011;51603;49.300;8.880;2023-08-01T02:23:37;6.43;;;5.30;;
65035;SDS011;51603;49.300;8.880;2023-08-01T02:26:03;6.40;;;5.20;;
65035;SDS011;51603;49.300;8.880;2023-08-01T02:28:28;6.03;;;5.10;;
65035;SDS011;51603;49.300;8.880;2023-08-01T02:30:54;9.00;;;5.23;;
65035;SDS011;51603;49.300;8.880;2023-08-01T02:33:19;7.87;;;5.27;;
65035;SDS011;51603;49.300;8.880;2023-08-01T02:35:48;8.17;;;5.23;;
65035;SDS011;51603;49.300;8.880;2023-08-01T02:38:14;6.30;;;5.17;;
65035;SDS011;51603;49.300;8.880;2023-08-01T02:40:39;7.90;;;4.50;;
65035;SDS011;51603;49.300;8.880;2023-08-01T02:43:05;6.60;;;5.80;;
65035;SDS011;51603;49.300;8.880;2023-08-01T02:45:30;6.80;;;5.60;;
65035;SDS011;51603;49.300;8.880;2023-08-01T02:47:56;9.27;;;4.90;;
65035;SDS011;51603;49.300;8.880;2023-08-01T02:50:21;10.53;;;6.40;;
65035;SDS011;51603;49.300;8.880;2023-08-01T02:52:47;8.37;;;5.40;;
65035;SDS011;51603;49.300;8.880;2023-08-01T02:55:12;5.57;;;4.57;;
65035;SDS011;51603;49.300;8.880;2023-08-01T02:57:38;7.27;;;5.03;;
65035;SDS011;51603;49.300;8.880;2023-08-01T03:00:04;6.77;;;4.80;;
65035;SDS011;51603;49.300;8.880;2023-08-01T03:02:31;6.00;;;5.00;;
65035;SDS011;51603;49.300;8.880;2023-08-01T03:04:57;7.93;;;5.10;;
65035;SDS011;51603;49.300;8.880;2023-08-01T03:07:22;6.67;;;5.13;;
65035;SDS011;51603;49.300;8.880;2023-08-01T03:09:48;6.17;;;4.30;;
65035;SDS011;51603;49.300;8.880;2023-08-01T03:12:14;8.70;;;5.70;;
65035;SDS011;51603;49.300;8.880;2023-08-01T03:14:39;5.73;;;5.13;;
65035;SDS011;51603;49.300;8.880;2023-08-01T03:17:08;6.53;;;4.77;;
65035;SDS011;51603;49.300;8.880;2023-08-01T03:19:33;7.20;;;4.57;;
65035;SDS011;51603;49.300;8.880;2023-08-01T03:21:59;11.27;;;5.20;;
65035;SDS011;51603;49.300;8.880;2023-08-01T03:24:25;6.00;;;4.93;;
65035;SDS011;51603;49.300;8.880;2023-08-01T03:26:51;10.30;;;6.20;;
65035;SDS011;51603;49.300;8.880;2023-08-01T03:29:16;8.80;;;5.13;;
65035;SDS011;51603;49.300;8.880;2023-08-01T03:31:42;8.37;;;5.10;;
65035;SDS011;51603;49.300;8.880;2023-08-01T03:34:08;6.67;;;5.30;;
65035;SDS011;51603;49.300;8.880;2023-08-01T03:36:34;7.50;;;5.00;;
65035;SDS011;51603;49.300;8.880;2023-08-01T03:39:00;10.43;;;5.20;;
65035;SDS011;51603;49.300;8.880;2023-08-01T03:41:25;7.17;;;5.30;;
65035;SDS011;51603;49.300;8.880;2023-08-01T03:43:51;6.40;;;5.27;;
65035;SDS011;51603;49.300;8.880;2023-08-01T03:46:16;10.97;;;5.70;;
65035;SDS011;51603;49.300;8.880;2023-08-01T03:48:42;8.63;;;5.10;;
65035;SDS011;51603;49.300;8.880;2023-08-01T03:51:08;11.47;;;5.70;;
65035;SDS011;51603;49.300;8.880;2023-08-01T03:53:33;7.30;;;5.20;;
65035;SDS011;51603;49.300;8.880;2023-08-01T03:55:59;6.40;;;4.67;;
65035;SDS011;51603;49.300;8.880;2023-08-01T03:58:25;8.67;;;6.00;;
65035;SDS011;51603;49.300;8.880;2023-08-01T04:00:50;10.73;;;5.53;;
65035;SDS011;51603;49.300;8.880;2023-08-01T04:03:16;10.93;;;5.60;;
65035;SDS011;51603;49.300;8.880;2023-08-01T04:05:42;6.90;;;4.80;;
65035;SDS011;51603;49.300;8.880;2023-08-01T04:08:07;9.53;;;5.60;;
65035;SDS011;51603;49.300;8.880;2023-08-01T04:10:33;5.80;;;4.50;;
65035;SDS011;51603;49.300;8.880;2023-08-01T04:12:59;8.20;;;6.20;;
65035;SDS011;51603;49.300;8.880;2023-08-01T04:15:24;7.90;;;6.40;;
65035;SDS011;51603;49.300;8.880;2023-08-01T04:17:50;5.63;;;5.07;;
65035;SDS011;51603;49.300;8.880;2023-08-01T04:20:15;6.47;;;5.57;;
65035;SDS011;51603;49.300;8.880;2023-08-01T04:22:41;8.33;;;5.63;;
65035;SDS011;51603;49.300;8.880;2023-08-01T04:25:07;8.80;;;6.83;;
65035;SDS011;51603;49.300;8.880;2023-08-01T04:27:33;11.10;;;5.17;;
65035;SDS011;51603;49.300;8.880;2023-08-01T04:29:58;5.93;;;5.33;;
65035;SDS011;51603;49.300;8.880;2023-08-01T04:32:24;7.27;;;5.80;;
65035;SDS011;51603;49.300;8.880;2023-08-01T04:34:49;6.40;;;5.00;;
65035;SDS011;51603;49.300;8.880;2023-08-01T04:37:15;8.20;;;5.93;;
65035;SDS011;51603;49.300;8.880;2023-08-01T04:39:41;7.50;;;5.80;;
65035;SDS011;51603;49.300;8.880;2023-08-01T04:42:06;6.80;;;5.83;;
65035;SDS011;51603;49.300;8.880;2023-08-01T04:44:32;8.30;;;6.30;;
65035;SDS011;51603;49.300;8.880;2023-08-01T04:46:57;9.20;;;5.13;;
65035;SDS011;51603;49.300;8.880;2023-08-01T04:49:23;7.67;;;5.33;;
65035;SDS011;51603;49.300;8.880;2023-08-01T04:51:51;6.47;;;5.47;;
65035;SDS011;51603;49.300;8.880;2023-08-01T04:54:17;8.13;;;5.60;;
65035;SDS011;51603;49.300;8.880;2023-08-01T04:56:43;7.43;;;6.07;;
65035;SDS011;51603;49.300;8.880;2023-08-01T04:59:08;6.77;;;6.07;;
65035;SDS011;51603;49.300;8.880;2023-08-01T05:01:34;8.00;;;7.20;;
65035;SDS011;51603;49.300;8.880;2023-08-01T05:03:59;8.30;;;5.80;;
65035;SDS011;51603;49.300;8.880;2023-08-01T05:06:25;7.17;;;6.43;;
65035;SDS011;51603;49.300;8.880;2023-08-01T05:08:50;6.93;;;5.27;;
65035;SDS011;51603;49.300;8.880;2023-08-01T05:11:16;10.23;;;6.70;;
65035;SDS011;51603;49.300;8.880;2023-08-01T05:13:41;6.60;;;5.90;;
65035;SDS011;51603;49.300;8.880;2023-08-01T05:16:07;9.00;;;6.00;;
65035;SDS011;51603;49.300;8.880;2023-08-01T05:18:33;7.07;;;6.00;;
65035;SDS011;51603;49.300;8.880;2023-08-01T05:20:58;7.20;;;6.03;;
65035;SDS011;51603;49.300;8.880;2023-08-01T05:23:24;7.20;;;6.13;;
65035;SDS011;51603;49.300;8.880;2023-08-01T05:25:49;12.03;;;6.67;;
65035;SDS011;51603;49.300;8.880;2023-08-01T05:28:15;11.30;;;7.97;;
65035;SDS011;51603;49.300;8.880;2023-08-01T05:30:40;7.90;;;6.50;;
65035;SDS011;51603;49.300;8.880;2023-08-01T05:33:06;7.03;;;6.10;;
65035;SDS011;51603;49.300;8.880;2023-08-01T05:35:31;11.43;;;7.43;;
65035;SDS011;51603;49.300;8.880;2023-08-01T05:37:57;10.50;;;6.30;;
65035;SDS011;51603;49.300;8.880;2023-08-01T05:40:23;9.60;;;6.47;;
65035;SDS011;51603;49.300;8.880;2023-08-01T05:42:48;5.93;;;5.33;;
65035;SDS011;51603;49.300;8.880;2023-08-01T05:45:14;8.80;;;6.30;;
65035;SDS011;51603;49.300;8.880;2023-08-01T05:47:40;8.63;;;5.80;;
65035;SDS011;51603;49.300;8.880;2023-08-01T05:50:06;7.37;;;6.67;;
65035;SDS011;51603;49.300;8.880;2023-08-01T05:52:33;7.87;;;6.20;;
65035;SDS011;51603;49.300;8.880;2023-08-01T05:54:59;6.90;;;6.20;;
65035;SDS011;51603;49.300;8.880;2023-08-01T05:57:25;7.60;;;6.30;;
65035;SDS011;51603;49.300;8.880;2023-08-01T05:59:50;11.87;;;6.57;;
65035;SDS011;51603;49.300;8.880;2023-08-01T06:02:16;8.63;;;7.00;;
65035;SDS011;51603;49.300;8.880;2023-08-01T06:04:41;6.97;;;5.60;;
65035;SDS011;51603;49.300;8.880;2023-08-01T06:07:07;9.03;;;5.70;;
65035;SDS011;51603;49.300;8.880;2023-08-01T06:09:33;8.47;;;5.93;;
65035;SDS011;51603;49.300;8.880;2023-08-01T06:11:58;7.33;;;6.10;;
65035;SDS011;51603;49.300;8.880;2023-08-01T06:17:30;6.23;;;5.30;;
65035;SDS011;51603;49.300;8.880;2023-08-01T06:19:56;7.50;;;6.40;;
65035;SDS011;51603;49.300;8.880;2023-08-01T06:22:21;9.40;;;6.33;;
65035;SDS011;51603;49.300;8.880;2023-08-01T06:24:47;6.70;;;5.20;;
65035;SDS011;51603;49.300;8.880;2023-08-01T06:27:12;8.07;;;5.67;;
65035;SDS011;51603;49.300;8.880;2023-08-01T07:03:20;6.60;;;5.10;;
65035;SDS011;51603;49.300;8.880;2023-08-01T07:05:46;7.47;;;5.80;;
65035;SDS011;51603;49.300;8.880;2023-08-01T07:08:11;5.00;;;3.97;;
65035;SDS011;51603;49.300;8.880;2023-08-01T07:10:37;5.03;;;4.20;;
65035;SDS011;51603;49.300;8.880;2023-08-01T07:19:46;4.23;;;3.80;;
65035;SDS011;51603;49.300;8.880;2023-08-01T07:22:12;4.40;;;4.00;;
65035;SDS011;51603;49.300;8.880;2023-08-01T07:24:37;8.57;;;5.07;;
65035;SDS011;51603;49.300;8.880;2023-08-01T07:27:03;6.20;;;4.60;;
65035;SDS011;51603;49.300;8.880;2023-08-01T07:29:29;7.67;;;4.70;;
65035;SDS011;51603;49.300;8.880;2023-08-01T07:31:55;5.97;;;4.40;;
65035;SDS011;51603;49.300;8.880;2023-08-01T07:34:20;5.30;;;4.80;;
65035;SDS011;51603;49.300;8.880;2023-08-01T07:36:47;4.50;;;4.00;;
65035;SDS011;51603;49.300;8.880;2023-08-01T07:39:14;7.53;;;5.53;;
65035;SDS011;51603;49.300;8.880;2023-08-01T07:41:40;7.80;;;5.80;;
65035;SDS011;51603;49.300;8.880;2023-08-01T07:44:05;6.83;;;6.00;;
65035;SDS011;51603;49.300;8.880;2023-08-01T07:46:31;7.87;;;5.90;;
65035;SDS011;51603;49.300;8.880;2023-08-01T07:48:57;7.57;;;6.00;;
65035;SDS011;51603;49.300;8.880;2023-08-01T07:51:24;6.67;;;6.00;;
65035;SDS011;51603;49.300;8.880;2023-08-01T07:53:50;7.50;;;5.87;;
65035;SDS011;51603;49.300;8.880;2023-08-01T07:56:17;8.10;;;5.57;;
65035;SDS011;51603;49.300;8.880;2023-08-01T07:58:43;7.80;;;5.67;;
65035;SDS011;51603;49.300;8.880;2023-08-01T08:01:08;5.00;;;4.50;;
65035;SDS011;51603;49.300;8.880;2023-08-01T08:03:34;5.70;;;3.90;;
65035;SDS011;51603;49.300;8.880;2023-08-01T08:05:59;6.10;;;4.40;;
65035;SDS011;51603;49.300;8.880;2023-08-01T08:08:25;4.20;;;3.80;;
65035;SDS011;51603;49.300;8.880;2023-08-01T08:10:52;5.20;;;4.53;;
65035;SDS011;51603;49.300;8.880;2023-08-01T08:13:17;4.00;;;3.60;;
65035;SDS011;51603;49.300;8.880;2023-08-01T08:15:43;3.97;;;3.60;;
65035;SDS011;51603;49.300;8.880;2023-08-01T08:18:08;5.17;;;3.60;;
65035;SDS011;51603;49.300;8.880;2023-08-01T08:20:40;3.43;;;3.13;;
65035;SDS011;51603;49.300;8.880;2023-08-01T08:23:07;4.20;;;3.30;;
65035;SDS011;51603;49.300;8.880;2023-08-01T08:25:33;5.93;;;3.93;;
65035;SDS011;51603;49.300;8.880;2023-08-01T08:27:58;5.90;;;4.17;;
65035;SDS011;51603;49.300;8.880;2023-08-01T08:30:24;5.10;;;4.13;;
65035;SDS011;51603;49.300;8.880;2023-08-01T08:32:50;6.53;;;4.87;;
65035;SDS011;51603;49.300;8.880;2023-08-01T08:35:15;5.57;;;4.97;;
65035;SDS011;51603;49.300;8.880;2023-08-01T08:37:41;5.27;;;4.43;;
65035;SDS011;51603;49.300;8.880;2023-08-01T08:40:07;6.80;;;4.60;;
65035;SDS011;51603;49.300;8.880;2023-08-01T08:42:33;5.87;;;4.40;;
65035;SDS011;51603;49.300;8.880;2023-08-01T08:45:01;5.30;;;4.30;;
65035;SDS011;51603;49.300;8.880;2023-08-01T08:47:27;5.30;;;4.70;;
65035;SDS011;51603;49.300;8.880;2023-08-01T08:49:55;4.93;;;4.33;;
65035;SDS011;51603;49.300;8.880;2023-08-01T08:52:24;4.33;;;3.93;;
65035;SDS011;51603;49.300;8.880;2023-08-01T08:54:51;4.87;;;3.47;;
65035;SDS011;51603;49.300;8.880;2023-08-01T08:57:17;5.10;;;3.17;;
65035;SDS011;51603;49.300;8.880;2023-08-01T08:59:46;4.20;;;3.70;;
65035;SDS011;51603;49.300;8.880;2023-08-01T09:02:12;4.50;;;3.13;;
65035;SDS011;51603;49.300;8.880;2023-08-01T09:04:39;4.13;;;2.80;;
65035;SDS011;51603;49.300;8.880;2023-08-01T09:07:07;3.27;;;2.97;;
65035;SDS011;51603;49.300;8.880;2023-08-01T09:09:36;2.77;;;2.13;;
65035;SDS011;51603;49.300;8.880;2023-08-01T09:12:01;5.17;;;2.83;;
65035;SDS011;51603;49.300;8.880;2023-08-01T09:14:27;5.73;;;2.53;;
65035;SDS011;51603;49.300;8.880;2023-08-01T09:16:54;4.30;;;2.27;;
65035;SDS011;51603;49.300;8.880;2023-08-01T09:19:20;4.13;;;2.37;;
65035;SDS011;51603;49.300;8.880;2023-08-01T09:21:48;3.17;;;2.23;;
65035;SDS011;51603;49.300;8.880;2023-08-01T09:24:16;3.13;;;2.00;;
65035;SDS011;51603;49.300;8.880;2023-08-01T09:26:43;3.10;;;2.20;;
65035;SDS011;51603;49.300;8.880;2023-08-01T09:29:10;3.83;;;2.20;;
65035;SDS011;51603;49.300;8.880;2023-08-01T09:31:36;2.20;;;1.80;;
65035;SDS011;51603;49.300;8.880;2023-08-01T09:34:04;1.90;;;1.60;;
65035;SDS011;51603;49.300;8.880;2023-08-01T09:36:30;2.57;;;1.63;;
65035;SDS011;51603;49.300;8.880;2023-08-01T09:38:57;3.23;;;1.57;;
65035;SDS011;51603;49.300;8.880;2023-08-01T09:41:24;2.80;;;1.20;;
65035;SDS011;51603;49.300;8.880;2023-08-01T09:43:50;1.87;;;1.30;;
65035;SDS011;51603;49.300;8.880;2023-08-01T09:46:16;1.60;;;0.93;;
65035;SDS011;51603;49.300;8.880;2023-08-01T09:48:41;2.20;;;1.40;;
65035;SDS011;51603;49.300;8.880;2023-08-01T09:51:12;1.00;;;0.80;;
65035;SDS011;51603;49.300;8.880;2023-08-01T09:53:51;1.47;;;1.20;;
65035;SDS011;51603;49.300;8.880;2023-08-01T09:56:19;1.30;;;1.10;;
65035;SDS011;51603;49.300;8.880;2023-08-01T09:58:49;1.77;;;1.30;;
65035;SDS011;51603;49.300;8.880;2023-08-01T10:01:17;2.13;;;1.20;;
65035;SDS011;51603;49.300;8.880;2023-08-01T10:03:48;2.10;;;0.93;;
65035;SDS011;51603;49.300;8.880;2023-08-01T10:06:19;1.57;;;1.10;;
65035;SDS011;51603;49.300;8.880;2023-08-01T10:08:46;2.77;;;0.97;;
65035;SDS011;51603;49.300;8.880;2023-08-01T10:11:14;1.37;;;0.93;;
65035;SDS011;51603;49.300;8.880;2023-08-01T10:13:42;1.03;;;0.70;;
65035;SDS011;51603;49.300;8.880;2023-08-01T10:16:09;2.73;;;0.80;;
65035;SDS011;51603;49.300;8.880;2023-08-01T10:18:36;1.10;;;0.90;;
65035;SDS011;51603;49.300;8.880;2023-08-01T10:21:02;1.67;;;1.00;;
65035;SDS011;51603;49.300;8.880;2023-08-01T10:23:30;1.53;;;0.87;;
65035;SDS011;51603;49.300;8.880;2023-08-01T10:25:58;1.50;;;0.97;;
65035;SDS011;51603;49.300;8.880;2023-08-01T10:28:38;1.60;;;1.30;;
65035;SDS011;51603;49.300;8.880;2023-08-01T10:31:11;1.10;;;0.60;;
65035;SDS011;51603;49.300;8.880;2023-08-01T10:33:38;1.30;;;1.00;;
65035;SDS011;51603;49.300;8.880;2023-08-01T10:36:19;1.33;;;0.80;;
65035;SDS011;51603;49.300;8.880;2023-08-01T10:41:18;1.70;;;1.03;;
65035;SDS011;51603;49.300;8.880;2023-08-01T10:46:52;1.30;;;0.90;;
65035;SDS011;51603;49.300;8.880;2023-08-01T10:49:19;3.00;;;1.10;;
65035;SDS011;51603;49.300;8.880;2023-08-01T10:51:46;1.60;;;0.90;;
65035;SDS011;51603;49.300;8.880;2023-08-01T10:54:22;1.00;;;0.80;;
65035;SDS011;51603;49.300;8.880;2023-08-01T10:56:50;1.00;;;0.80;;
65035;SDS011;51603;49.300;8.880;2023-08-01T10:59:17;1.00;;;0.63;;
65035;SDS011;51603;49.300;8.880;2023-08-01T11:01:47;2.20;;;1.20;;
65035;SDS011;51603;49.300;8.880;2023-08-01T11:04:17;1.40;;;0.80;;
65035;SDS011;51603;49.300;8.880;2023-08-01T11:06:48;1.47;;;0.90;;
65035;SDS011;51603;49.300;8.880;2023-08-01T11:09:16;1.87;;;0.77;;
65035;SDS011;51603;49.300;8.880;2023-08-01T11:11:48;1.57;;;0.90;;
65035;SDS011;51603;49.300;8.880;2023-08-01T11:14:18;2.47;;;0.90;;
65035;SDS011;51603;49.300;8.880;2023-08-01T11:16:48;3.27;;;0.93;;
65035;SDS011;51603;49.300;8.880;2023-08-01T11:19:18;1.27;;;0.93;;
65035;SDS011;51603;49.300;8.880;2023-08-01T11:21:45;2.30;;;0.83;;
65035;SDS011;51603;49.300;8.880;2023-08-01T11:24:11;1.63;;;0.97;;
65035;SDS011;51603;49.300;8.880;2023-08-01T11:26:40;1.23;;;0.90;;
65035;SDS011;51603;49.300;8.880;2023-08-01T11:29:11;2.63;;;1.30;;
65035;SDS011;51603;49.300;8.880;2023-08-01T11:31:38;1.17;;;0.80;;
65035;SDS011;51603;49.300;8.880;2023-08-01T11:34:04;1.40;;;1.30;;
65035;SDS011;51603;49.300;8.880;2023-08-01T11:36:30;1.37;;;1.10;;
65035;SDS011;51603;49.300;8.880;2023-08-01T11:38:57;2.37;;;1.13;;
65035;SDS011;51603;49.300;8.880;2023-08-01T11:41:24;1.60;;;1.03;;
65035;SDS011;51603;49.300;8.880;2023-08-01T11:43:52;2.43;;;1.47;;
65035;SDS011;51603;49.300;8.880;2023-08-01T11:46:19;1.70;;;1.27;;
65035;SDS011;51603;49.300;8.880;2023-08-01T11:48:45;1.80;;;1.60;;
65035;SDS011;51603;49.300;8.880;2023-08-01T11:51:12;2.67;;;1.50;;
65035;SDS011;51603;49.300;8.880;2023-08-01T11:53:38;2.50;;;1.33;;
65035;SDS011;51603;49.300;8.880;2023-08-01T11:56:06;2.40;;;1.30;;
65035;SDS011;51603;49.300;8.880;2023-08-01T11:58:33;1.50;;;1.00;;
65035;SDS011;51603;49.300;8.880;2023-08-01T12:01:09;2.67;;;1.47;;
65035;SDS011;51603;49.300;8.880;2023-08-01T12:03:42;2.00;;;1.43;;
65035;SDS011;51603;49.300;8.880;2023-08-01T12:06:13;1.80;;;1.37;;
65035;SDS011;51603;49.300;8.880;2023-08-01T12:08:39;4.07;;;1.40;;
65035;SDS011;51603;49.300;8.880;2023-08-01T12:13:48;1.47;;;1.10;;
65035;SDS011;51603;49.300;8.880;2023-08-01T12:16:24;3.37;;;1.50;;
65035;SDS011;51603;49.300;8.880;2023-08-01T12:18:50;2.50;;;1.20;;
65035;SDS011;51603;49.300;8.880;2023-08-01T12:21:16;2.00;;;1.10;;
65035;SDS011;51603;49.300;8.880;2023-08-01T12:23:41;2.37;;;1.30;;
65035;SDS011;51603;49.300;8.880;2023-08-01T12:26:07;1.40;;;1.10;;
65035;SDS011;51603;49.300;8.880;2023-08-01T12:28:33;1.93;;;1.20;;
65035;SDS011;51603;49.300;8.880;2023-08-01T12:30:59;1.40;;;1.17;;
65035;SDS011;51603;49.300;8.880;2023-08-01T12:33:24;1.80;;;1.50;;
65035;SDS011;51603;49.300;8.880;2023-08-01T12:35:50;1.30;;;1.10;;
65035;SDS011;51603;49.300;8.880;2023-08-01T12:38:16;4.90;;;1.50;;
65035;SDS011;51603;49.300;8.880;2023-08-01T12:40:41;3.00;;;1.67;;
65035;SDS011;51603;49.300;8.880;2023-08-01T12:43:07;2.23;;;1.70;;
65035;SDS011;51603;49.300;8.880;2023-08-01T12:45:32;2.10;;;1.27;;
65035;SDS011;51603;49.300;8.880;2023-08-01T12:47:58;2.93;;;1.70;;
65035;SDS011;51603;49.300;8.880;2023-08-01T12:50:23;1.83;;;1.23;;
65035;SDS011;51603;49.300;8.880;2023-08-01T12:52:49;4.57;;;1.40;;
65035;SDS011;51603;49.300;8.880;2023-08-01T12:55:15;2.27;;;1.27;;
65035;SDS011;51603;49.300;8.880;2023-08-01T12:57:40;2.87;;;1.63;;
65035;SDS011;51603;49.300;8.880;2023-08-01T13:00:07;3.70;;;1.53;;
65035;SDS011;51603;49.300;8.880;2023-08-01T13:02:35;2.80;;;1.67;;
65035;SDS011;51603;49.300;8.880;2023-08-01T13:05:01;2.90;;;1.63;;
65035;SDS011;51603;49.300;8.880;2023-08-01T13:07:27;1.87;;;1.10;;
65035;SDS011;51603;49.300;8.880;2023-08-01T13:09:53;2.27;;;1.70;;
65035;SDS011;51603;49.300;8.880;2023-08-01T13:12:18;2.40;;;1.77;;
65035;SDS011;51603;49.300;8.880;2023-08-01T13:14:44;1.93;;;1.30;;
65035;SDS011;51603;49.300;8.880;2023-08-01T13:17:09;2.97;;;2.07;;
65035;SDS011;51603;49.300;8.880;2023-08-01T13:19:35;3.07;;;1.40;;
65035;SDS011;51603;49.300;8.880;2023-08-01T13:22:00;2.23;;;1.47;;
65035;SDS011;51603;49.300;8.880;2023-08-01T13:24:26;1.90;;;1.60;;
65035;SDS011;51603;49.300;8.880;2023-08-01T13:26:52;3.43;;;1.80;;
65035;SDS011;51603;49.300;8.880;2023-08-01T13:29:17;2.00;;;1.50;;
65035;SDS011;51603;49.300;8.880;2023-08-01T13:31:43;2.37;;;2.03;;
65035;SDS011;51603;49.300;8.880;2023-08-01T13:34:09;4.10;;;1.30;;
65035;SDS011;51603;49.300;8.880;2023-08-01T13:36:35;6.83;;;2.00;;
65035;SDS011;51603;49.300;8.880;2023-08-01T13:39:01;1.70;;;1.10;;
65035;SDS011;51603;49.300;8.880;2023-08-01T13:41:26;3.63;;;1.57;;
65035;SDS011;51603;49.300;8.880;2023-08-01T13:43:52;2.50;;;1.43;;
65035;SDS011;51603;49.300;8.880;2023-08-01T13:46:18;2.60;;;1.20;;
65035;SDS011;51603;49.300;8.880;2023-08-01T13:48:46;2.47;;;1.30;;
65035;SDS011;51603;49.300;8.880;2023-08-01T13:51:12;2.20;;;1.33;;
65035;SDS011;51603;49.300;8.880;2023-08-01T13:53:39;2.17;;;1.40;;
65035;SDS011;51603;49.300;8.880;2023-08-01T13:56:11;2.63;;;1.67;;
65035;SDS011;51603;49.300;8.880;2023-08-01T13:58:37;2.50;;;1.63;;
65035;SDS011;51603;49.300;8.880;2023-08-01T14:01:04;2.33;;;1.50;;
65035;SDS011;51603;49.300;8.880;2023-08-01T14:03:34;4.07;;;1.60;;
65035;SDS011;51603;49.300;8.880;2023-08-01T14:06:05;1.80;;;1.40;;
65035;SDS011;51603;49.300;8.880;2023-08-01T14:08:32;2.87;;;1.60;;
65035;SDS011;51603;49.300;8.880;2023-08-01T14:10:58;3.33;;;1.53;;
65035;SDS011;51603;49.300;8.880;2023-08-01T14:13:23;3.13;;;1.33;;
65035;SDS011;51603;49.300;8.880;2023-08-01T14:15:49;2.53;;;1.60;;
65035;SDS011;51603;49.300;8.880;2023-08-01T14:18:14;2.00;;;1.50;;
65035;SDS011;51603;49.300;8.880;2023-08-01T14:20:40;2.20;;;1.60;;
65035;SDS011;51603;49.300;8.880;2023-08-01T14:23:06;2.30;;;1.43;;
65035;SDS011;51603;49.300;8.880;2023-08-01T14:25:31;3.67;;;1.60;;
65035;SDS011;51603;49.300;8.880;2023-08-01T14:27:57;5.00;;;1.53;;
65035;SDS011;51603;49.300;8.880;2023-08-01T14:30:22;1.97;;;1.53;;
65035;SDS011;51603;49.300;8.880;2023-08-01T14:32:48;2.03;;;1.10;;
65035;SDS011;51603;49.300;8.880;2023-08-01T14:35:14;2.43;;;1.47;;
65035;SDS011;51603;49.300;8.880;2023-08-01T14:37:39;2.27;;;1.60;;
65035;SDS011;51603;49.300;8.880;2023-08-01T14:40:07;2.93;;;1.33;;
65035;SDS011;51603;49.300;8.880;2023-08-01T14:42:33;2.33;;;1.60;;
65035;SDS011;51603;49.300;8.880;2023-08-01T14:44:58;3.47;;;1.30;;
65035;SDS011;51603;49.300;8.880;2023-08-01T14:47:24;2.23;;;1.57;;
65035;SDS011;51603;49.300;8.880;2023-08-01T14:49:50;3.80;;;1.60;;
65035;SDS011;51603;49.300;8.880;2023-08-01T14:52:15;2.70;;;1.23;;
65035;SDS011;51603;49.300;8.880;2023-08-01T14:54:41;2.80;;;1.20;;
65035;SDS011;51603;49.300;8.880;2023-08-01T14:57:07;2.20;;;1.50;;
65035;SDS011;51603;49.300;8.880;2023-08-01T14:59:33;3.10;;;1.30;;
65035;SDS011;51603;49.300;8.880;2023-08-01T15:01:59;1.93;;;1.00;;
65035;SDS011;51603;49.300;8.880;2023-08-01T15:04:25;2.30;;;1.50;;
65035;SDS011;51603;49.300;8.880;2023-08-01T15:06:51;3.60;;;1.60;;
65035;SDS011;51603;49.300;8.880;2023-08-01T15:09:17;4.70;;;1.40;;
65035;SDS011;51603;49.300;8.880;2023-08-01T15:11:42;1.77;;;1.30;;
65035;SDS011;51603;49.300;8.880;2023-08-01T15:14:08;2.87;;;1.37;;
65035;SDS011;51603;49.300;8.880;2023-08-01T15:16:33;6.27;;;1.77;;
65035;SDS011;51603;49.300;8.880;2023-08-01T15:18:59;2.50;;;1.30;;
65035;SDS011;51603;49.300;8.880;2023-08-01T15:21:25;2.43;;;1.77;;
65035;SDS011;51603;49.300;8.880;2023-08-01T15:23:52;1.93;;;1.30;;
65035;SDS011;51603;49.300;8.880;2023-08-01T15:26:18;1.83;;;1.20;;
65035;SDS011;51603;49.300;8.880;2023-08-01T15:28:44;3.37;;;1.43;;
65035;SDS011;51603;49.300;8.880;2023-08-01T15:31:10;2.13;;;1.40;;
65035;SDS011;51603;49.300;8.880;2023-08-01T15:33:36;2.53;;;1.40;;
65035;SDS011;51603;49.300;8.880;2023-08-01T15:36:03;2.30;;;1.63;;